sensor_id;sensor_type;location;lat;lon;timestamp;pressure;altitude;pressure_sealevel;temperature;humidity
79331;BME280;68797;49.782;19.054;2023-05-10T00:01:31;97412.53;;;8.83;54.43
79331;BME280;68797;49.782;19.054;2023-05-10T00:03:57;97411.63;;;8.84;54.54
79331;BME280;68797;49.782;19.054;2023-05-10T00:06:25;97406.44;;;8.80;55.42
79331;BME280;68797;49.782;19.054;2023-05-10T00:08:51;97404.75;;;8.77;55.95
79331;BME280;68797;49.782;19.054;2023-05-10T00:11:17;97399.53;;;8.72;56.79
79331;BME280;68797;49.782;19.054;2023-05-10T00:13:45;97390.97;;;8.61;56.57
79331;BME280;68797;49.782;19.054;2023-05-10T00:16:11;97402.53;;;8.57;56.94
79331;BME280;68797;49.782;19.054;2023-05-10T00:18:39;97399.06;;;8.55;57.70
79331;BME280;68797;49.782;19.054;2023-05-10T00:21:06;97403.53;;;8.52;58.07
79331;BME280;68797;49.782;19.054;2023-05-10T00:23:33;97393.09;;;8.46;58.69
79331;BME280;68797;49.782;19.054;2023-05-10T00:26:00;97394.91;;;8.42;59.10
79331;BME280;68797;49.782;19.054;2023-05-10T00:28:28;97393.31;;;8.33;59.15
79331;BME280;68797;49.782;19.054;2023-05-10T00:30:56;97396.06;;;8.27;59.76
79331;BME280;68797;49.782;19.054;2023-05-10T00:33:22;97395.28;;;8.24;59.64
79331;BME280;68797;49.782;19.054;2023-05-10T00:35:52;97391.81;;;8.20;59.26
79331;BME280;68797;49.782;19.054;2023-05-10T00:38:20;97381.31;;;8.17;59.33
79331;BME280;68797;49.782;19.054;2023-05-10T00:40:47;97392.84;;;8.13;59.12
79331;BME280;68797;49.782;19.054;2023-05-10T00:43:21;97388.50;;;8.09;58.59
79331;BME280;68797;49.782;19.054;2023-05-10T00:45:49;97374.53;;;8.04;58.97
79331;BME280;68797;49.782;19.054;2023-05-10T00:48:18;97375.53;;;7.98;59.06
79331;BME280;68797;49.782;19.054;2023-05-10T00:50:49;97380.81;;;7.98;59.51
79331;BME280;68797;49.782;19.054;2023-05-10T00:53:16;97376.47;;;7.94;58.99
79331;BME280;68797;49.782;19.054;2023-05-10T00:55:44;97375.66;;;7.92;58.42
79331;BME280;68797;49.782;19.054;2023-05-10T00:58:12;97379.13;;;7.94;58.37
79331;BME280;68797;49.782;19.054;2023-05-10T01:00:43;97369.56;;;7.89;58.53
79331;BME280;68797;49.782;19.054;2023-05-10T01:03:15;97375.72;;;7.89;58.88
79331;BME280;68797;49.782;19.054;2023-05-10T01:05:41;97372.31;;;7.82;58.92
79331;BME280;68797;49.782;19.054;2023-05-10T01:08:09;97379.38;;;7.82;59.42
79331;BME280;68797;49.782;19.054;2023-05-10T01:10:36;97369.75;;;7.79;58.46
79331;BME280;68797;49.782;19.054;2023-05-10T01:13:02;97374.19;;;7.77;58.24
79331;BME280;68797;49.782;19.054;2023-05-10T01:15:30;97370.69;;;7.75;58.17
79331;BME280;68797;49.782;19.054;2023-05-10T01:17:59;97371.72;;;7.68;59.03
79331;BME280;68797;49.782;19.054;2023-05-10T01:20:32;97355.78;;;7.71;58.82
79331;BME280;68797;49.782;19.054;2023-05-10T01:23:31;97364.56;;;7.73;58.97
79331;BME280;68797;49.782;19.054;2023-05-10T01:26:29;97367.19;;;7.73;59.56
79331;BME280;68797;49.782;19.054;2023-05-10T01:29:39;97366.31;;;7.73;58.83
79331;BME280;68797;49.782;19.054;2023-05-10T01:35:00;97361.94;;;7.72;60.00
79331;BME280;68797;49.782;19.054;2023-05-10T01:37:42;97363.69;;;7.73;58.28
79331;BME280;68797;49.782;19.054;2023-05-10T01:40:39;97353.25;;;7.67;59.66
79331;BME280;68797;49.782;19.054;2023-05-10T01:43:14;97349.63;;;7.72;58.66
79331;BME280;68797;49.782;19.054;2023-05-10T01:46:07;97360.19;;;7.72;58.08
79331;BME280;68797;49.782;19.054;2023-05-10T01:48:48;97353.25;;;7.67;57.54
79331;BME280;68797;49.782;19.054;2023-05-10T01:51:26;97339.09;;;7.71;59.22
79331;BME280;68797;49.782;19.054;2023-05-10T01:54:13;97348.69;;;7.75;57.54
79331;BME280;68797;49.782;19.054;2023-05-10T01:56:43;97348.63;;;7.78;58.32
79331;BME280;68797;49.782;19.054;2023-05-10T01:59:15;97349.50;;;7.78;58.25
79331;BME280;68797;49.782;19.054;2023-05-10T02:01:44;97333.66;;;7.78;58.46
79331;BME280;68797;49.782;19.054;2023-05-10T02:04:15;97338.94;;;7.78;58.34
79331;BME280;68797;49.782;19.054;2023-05-10T02:06:48;97338.97;;;7.75;58.55
79331;BME280;68797;49.782;19.054;2023-05-10T02:09:15;97332.00;;;7.73;58.84
79331;BME280;68797;49.782;19.054;2023-05-10T02:11:45;97329.28;;;7.76;58.74
79331;BME280;68797;49.782;19.054;2023-05-10T02:14:18;97325.88;;;7.71;58.58
79331;BME280;68797;49.782;19.054;2023-05-10T02:16:46;97325.00;;;7.70;57.08
79331;BME280;68797;49.782;19.054;2023-05-10T02:19:13;97324.19;;;7.68;57.50
79331;BME280;68797;49.782;19.054;2023-05-10T02:21:41;97330.25;;;7.72;56.41
79331;BME280;68797;49.782;19.054;2023-05-10T02:24:11;97317.91;;;7.72;57.55
79331;BME280;68797;49.782;19.054;2023-05-10T02:26:39;97317.84;;;7.75;57.07
79331;BME280;68797;49.782;19.054;2023-05-10T02:29:11;97310.09;;;7.68;58.09
79331;BME280;68797;49.782;19.054;2023-05-10T02:31:42;97315.25;;;7.74;57.83
79331;BME280;68797;49.782;19.054;2023-05-10T02:34:10;97317.84;;;7.77;57.54
79331;BME280;68797;49.782;19.054;2023-05-10T02:36:39;97315.13;;;7.80;56.90
79331;BME280;68797;49.782;19.054;2023-05-10T02:39:09;97320.47;;;7.78;56.92
79331;BME280;68797;49.782;19.054;2023-05-10T02:41:41;97318.56;;;7.83;55.49
79331;BME280;68797;49.782;19.054;2023-05-10T02:44:10;97311.66;;;7.78;55.84
79331;BME280;68797;49.782;19.054;2023-05-10T02:46:38;97316.13;;;7.74;55.72
79331;BME280;68797;49.782;19.054;2023-05-10T02:49:06;97311.69;;;7.76;56.72
79331;BME280;68797;49.782;19.054;2023-05-10T02:51:36;97309.09;;;7.73;55.86
79331;BME280;68797;49.782;19.054;2023-05-10T02:54:22;97319.63;;;7.75;56.14
79331;BME280;68797;49.782;19.054;2023-05-10T02:56:54;97315.13;;;7.80;56.24
79331;BME280;68797;49.782;19.054;2023-05-10T02:59:30;97303.78;;;7.75;56.50
79331;BME280;68797;49.782;19.054;2023-05-10T03:01:59;97318.50;;;7.86;56.66
79331;BME280;68797;49.782;19.054;2023-05-10T03:04:30;97316.72;;;7.89;55.98
79331;BME280;68797;49.782;19.054;2023-05-10T03:06:58;97309.75;;;7.84;56.18
79331;BME280;68797;49.782;19.054;2023-05-10T03:09:26;97321.16;;;7.86;55.37
79331;BME280;68797;49.782;19.054;2023-05-10T03:12:15;97321.16;;;7.86;57.55
79331;BME280;68797;49.782;19.054;2023-05-10T03:15:02;97312.44;;;7.83;56.29
79331;BME280;68797;49.782;19.054;2023-05-10T03:20:11;97307.97;;;7.85;56.79
79331;BME280;68797;49.782;19.054;2023-05-10T03:22:47;97321.09;;;7.90;57.60
79331;BME280;68797;49.782;19.054;2023-05-10T03:25:18;97317.63;;;7.86;56.98
79331;BME280;68797;49.782;19.054;2023-05-10T03:27:49;97311.63;;;7.79;56.15
79331;BME280;68797;49.782;19.054;2023-05-10T03:30:18;97321.16;;;7.86;56.83
79331;BME280;68797;49.782;19.054;2023-05-10T03:32:47;97320.28;;;7.86;56.43
79331;BME280;68797;49.782;19.054;2023-05-10T03:35:17;97318.41;;;7.93;55.57
79331;BME280;68797;49.782;19.054;2023-05-10T03:37:45;97309.63;;;7.91;55.54
79331;BME280;68797;49.782;19.054;2023-05-10T03:40:12;97314.75;;;8.00;55.12
79331;BME280;68797;49.782;19.054;2023-05-10T03:42:41;97314.78;;;7.98;55.15
79331;BME280;68797;49.782;19.054;2023-05-10T03:45:10;97315.38;;;8.11;55.10
79331;BME280;68797;49.782;19.054;2023-05-10T03:47:37;97311.00;;;8.08;55.17
79331;BME280;68797;49.782;19.054;2023-05-10T03:50:05;97306.59;;;8.09;54.60
79331;BME280;68797;49.782;19.054;2023-05-10T03:52:34;97300.31;;;8.14;55.18
79331;BME280;68797;49.782;19.054;2023-05-10T03:55:01;97305.41;;;8.24;55.11
79331;BME280;68797;49.782;19.054;2023-05-10T03:57:33;97305.28;;;8.28;54.27
79331;BME280;68797;49.782;19.054;2023-05-10T04:00:07;97307.91;;;8.30;55.26
79331;BME280;68797;49.782;19.054;2023-05-10T04:02:51;97297.38;;;8.28;53.95
79331;BME280;68797;49.782;19.054;2023-05-10T04:05:21;97308.72;;;8.33;54.62
79331;BME280;68797;49.782;19.054;2023-05-10T04:07:51;97306.00;;;8.38;54.80
79331;BME280;68797;49.782;19.054;2023-05-10T04:10:17;97302.38;;;8.42;53.29
79331;BME280;68797;49.782;19.054;2023-05-10T04:12:45;97300.47;;;8.49;53.91
79331;BME280;68797;49.782;19.054;2023-05-10T04:15:12;97310.94;;;8.53;53.55
79331;BME280;68797;49.782;19.054;2023-05-10T04:17:40;97309.94;;;8.59;55.37
79331;BME280;68797;49.782;19.054;2023-05-10T04:20:10;97307.91;;;8.70;54.50
79331;BME280;68797;49.782;19.054;2023-05-10T04:22:37;97307.91;;;8.70;53.42
79331;BME280;68797;49.782;19.054;2023-05-10T04:25:10;97300.97;;;8.64;53.33
79331;BME280;68797;49.782;19.054;2023-05-10T04:27:38;97307.00;;;8.71;52.83
79331;BME280;68797;49.782;19.054;2023-05-10T04:30:05;97307.94;;;8.68;53.07
79331;BME280;68797;49.782;19.054;2023-05-10T04:32:35;97312.91;;;8.82;53.07
79331;BME280;68797;49.782;19.054;2023-05-10T04:35:05;97303.97;;;8.86;52.78
79331;BME280;68797;49.782;19.054;2023-05-10T04:37:33;97298.75;;;8.83;53.82
79331;BME280;68797;49.782;19.054;2023-05-10T04:40:01;97300.28;;;8.93;52.89
79331;BME280;68797;49.782;19.054;2023-05-10T04:42:40;97311.81;;;8.91;51.82
79331;BME280;68797;49.782;19.054;2023-05-10T04:45:14;97296.75;;;8.93;52.94
79331;BME280;68797;49.782;19.054;2023-05-10T04:47:45;97294.94;;;8.95;52.54
79331;BME280;68797;49.782;19.054;2023-05-10T04:50:15;97302.63;;;9.06;52.36
79331;BME280;68797;49.782;19.054;2023-05-10T04:52:44;97291.78;;;9.15;52.47
79331;BME280;68797;49.782;19.054;2023-05-10T04:55:15;97300.31;;;9.26;52.45
79331;BME280;68797;49.782;19.054;2023-05-10T04:58:00;97297.91;;;9.17;52.61
79331;BME280;68797;49.782;19.054;2023-05-10T05:00:37;97284.91;;;9.08;52.51
79331;BME280;68797;49.782;19.054;2023-05-10T05:03:04;97294.16;;;9.25;52.83
79331;BME280;68797;49.782;19.054;2023-05-10T05:05:33;97288.25;;;9.16;52.47
79331;BME280;68797;49.782;19.054;2023-05-10T05:08:01;97298.56;;;9.26;51.97
79331;BME280;68797;49.782;19.054;2023-05-10T05:10:30;97278.91;;;9.35;52.39
79331;BME280;68797;49.782;19.054;2023-05-10T05:12:59;97278.78;;;9.40;51.84
79331;BME280;68797;49.782;19.054;2023-05-10T05:15:26;97267.13;;;9.47;52.17
79331;BME280;68797;49.782;19.054;2023-05-10T05:17:53;97284.50;;;9.57;52.15
79331;BME280;68797;49.782;19.054;2023-05-10T05:20:20;97282.97;;;9.48;50.98
79331;BME280;68797;49.782;19.054;2023-05-10T05:22:47;97284.34;;;9.61;51.94
79331;BME280;68797;49.782;19.054;2023-05-10T05:25:16;97282.53;;;9.64;51.42
79331;BME280;68797;49.782;19.054;2023-05-10T05:27:44;97283.38;;;9.66;51.20
79331;BME280;68797;49.782;19.054;2023-05-10T05:30:10;97271.50;;;9.79;50.91
79331;BME280;68797;49.782;19.054;2023-05-10T05:32:38;97269.63;;;9.82;51.56
79331;BME280;68797;49.782;19.054;2023-05-10T05:35:05;97264.84;;;9.95;51.39
79331;BME280;68797;49.782;19.054;2023-05-10T05:37:35;97279.84;;;9.96;51.62
79331;BME280;68797;49.782;19.054;2023-05-10T05:40:04;97273.34;;;10.06;51.93
79331;BME280;68797;49.782;19.054;2023-05-10T05:42:31;97267.94;;;10.11;50.65
79331;BME280;68797;49.782;19.054;2023-05-10T05:44:59;97269.13;;;10.30;49.97
79331;BME280;68797;49.782;19.054;2023-05-10T05:47:25;97281.66;;;10.55;50.55
79331;BME280;68797;49.782;19.054;2023-05-10T05:49:53;97276.44;;;13.17;43.73
79331;BME280;68797;49.782;19.054;2023-05-10T05:52:20;97263.81;;;19.42;31.30
79331;BME280;68797;49.782;19.054;2023-05-10T05:54:49;97253.28;;;24.18;23.54
79331;BME280;68797;49.782;19.054;2023-05-10T05:57:15;97258.91;;;26.34;20.75
79331;BME280;68797;49.782;19.054;2023-05-10T05:59:42;97257.31;;;28.58;18.17
79331;BME280;68797;49.782;19.054;2023-05-10T06:02:12;97247.00;;;29.38;17.26
79331;BME280;68797;49.782;19.054;2023-05-10T06:04:39;97228.16;;;30.10;16.63
79331;BME280;68797;49.782;19.054;2023-05-10T06:07:08;97249.47;;;29.90;16.50
79331;BME280;68797;49.782;19.054;2023-05-10T06:09:35;97232.22;;;30.05;16.70
79331;BME280;68797;49.782;19.054;2023-05-10T06:12:02;97242.84;;;30.25;16.81
79331;BME280;68797;49.782;19.054;2023-05-10T06:14:30;97240.94;;;29.85;17.34
79331;BME280;68797;49.782;19.054;2023-05-10T06:17:00;97251.94;;;28.22;17.54
79331;BME280;68797;49.782;19.054;2023-05-10T06:19:32;97253.28;;;26.92;19.59
79331;BME280;68797;49.782;19.054;2023-05-10T06:22:00;97249.38;;;25.53;21.09
79331;BME280;68797;49.782;19.054;2023-05-10T06:24:27;97256.44;;;25.15;22.97
79331;BME280;68797;49.782;19.054;2023-05-10T06:26:54;97238.59;;;24.72;22.87
79331;BME280;68797;49.782;19.054;2023-05-10T06:29:20;97252.72;;;23.83;23.60
79331;BME280;68797;49.782;19.054;2023-05-10T06:31:47;97253.31;;;23.54;25.34
79331;BME280;68797;49.782;19.054;2023-05-10T06:34:15;97256.94;;;22.78;26.92
79331;BME280;68797;49.782;19.054;2023-05-10T06:36:44;97261.25;;;21.89;27.61
79331;BME280;68797;49.782;19.054;2023-05-10T06:39:11;97259.34;;;21.20;29.39
79331;BME280;68797;49.782;19.054;2023-05-10T06:41:39;97258.66;;;20.30;30.07
79331;BME280;68797;49.782;19.054;2023-05-10T06:44:06;97261.22;;;19.93;32.17
79331;BME280;68797;49.782;19.054;2023-05-10T06:46:34;97262.81;;;19.70;33.83
79331;BME280;68797;49.782;19.054;2023-05-10T06:49:02;97247.72;;;19.01;31.22
79331;BME280;68797;49.782;19.054;2023-05-10T06:51:42;97242.63;;;18.55;34.94
79331;BME280;68797;49.782;19.054;2023-05-10T06:54:08;97256.72;;;18.59;34.64
79331;BME280;68797;49.782;19.054;2023-05-10T06:56:35;97243.38;;;18.57;34.58
79331;BME280;68797;49.782;19.054;2023-05-10T06:59:09;97249.72;;;18.71;36.31
79331;BME280;68797;49.782;19.054;2023-05-10T07:01:36;97235.34;;;18.43;33.68
79331;BME280;68797;49.782;19.054;2023-05-10T07:04:03;97247.34;;;18.52;35.88
79331;BME280;68797;49.782;19.054;2023-05-10T07:06:30;97247.22;;;18.68;33.35
79331;BME280;68797;49.782;19.054;2023-05-10T07:08:57;97239.53;;;18.76;37.19
79331;BME280;68797;49.782;19.054;2023-05-10T07:11:28;97237.72;;;18.76;36.15
79331;BME280;68797;49.782;19.054;2023-05-10T07:13:57;97229.94;;;18.57;33.46
79331;BME280;68797;49.782;19.054;2023-05-10T07:16:24;97235.19;;;18.88;36.27
79331;BME280;68797;49.782;19.054;2023-05-10T07:18:51;97243.25;;;18.88;34.90
79331;BME280;68797;49.782;19.054;2023-05-10T07:21:21;97239.81;;;18.85;34.21
79331;BME280;68797;49.782;19.054;2023-05-10T07:23:50;97238.97;;;18.71;34.14
79331;BME280;68797;49.782;19.054;2023-05-10T07:26:20;97239.34;;;18.79;34.92
79331;BME280;68797;49.782;19.054;2023-05-10T07:28:50;97238.44;;;18.93;34.98
79331;BME280;68797;49.782;19.054;2023-05-10T07:31:30;97233.56;;;18.85;37.28
79331;BME280;68797;49.782;19.054;2023-05-10T07:34:00;97227.50;;;18.81;34.84
79331;BME280;68797;49.782;19.054;2023-05-10T07:36:32;97223.84;;;18.82;32.65
79331;BME280;68797;49.782;19.054;2023-05-10T07:38:59;97222.94;;;18.69;37.24
79331;BME280;68797;49.782;19.054;2023-05-10T07:41:26;97223.16;;;18.93;34.67
79331;BME280;68797;49.782;19.054;2023-05-10T07:43:56;97211.13;;;18.72;34.91
79331;BME280;68797;49.782;19.054;2023-05-10T07:46:22;97213.03;;;18.70;35.69
79331;BME280;68797;49.782;19.054;2023-05-10T07:48:49;97216.91;;;18.93;34.86
79331;BME280;68797;49.782;19.054;2023-05-10T07:51:16;97210.28;;;18.98;35.92
79331;BME280;68797;49.782;19.054;2023-05-10T07:53:44;97221.38;;;19.06;35.92
79331;BME280;68797;49.782;19.054;2023-05-10T07:56:22;97216.56;;;19.11;32.67
79331;BME280;68797;49.782;19.054;2023-05-10T07:58:51;97208.13;;;19.03;35.51
79331;BME280;68797;49.782;19.054;2023-05-10T08:01:17;97215.09;;;19.20;37.14
79331;BME280;68797;49.782;19.054;2023-05-10T08:03:48;97225.41;;;19.26;32.92
79331;BME280;68797;49.782;19.054;2023-05-10T08:06:24;97217.50;;;18.98;31.91
79331;BME280;68797;49.782;19.054;2023-05-10T08:08:55;97206.84;;;18.96;36.46
79331;BME280;68797;49.782;19.054;2023-05-10T08:11:22;97220.47;;;18.93;33.62
79331;BME280;68797;49.782;19.054;2023-05-10T08:13:52;97224.66;;;18.84;34.72
79331;BME280;68797;49.782;19.054;2023-05-10T08:16:20;97215.50;;;18.87;36.93
79331;BME280;68797;49.782;19.054;2023-05-10T08:18:49;97217.53;;;19.10;35.68
79331;BME280;68797;49.782;19.054;2023-05-10T08:21:16;97212.38;;;19.07;31.96
79331;BME280;68797;49.782;19.054;2023-05-10T08:23:44;97215.25;;;18.77;34.06
79331;BME280;68797;49.782;19.054;2023-05-10T08:26:11;97216.19;;;19.03;36.21
79331;BME280;68797;49.782;19.054;2023-05-10T08:28:37;97215.34;;;19.30;36.93
79331;BME280;68797;49.782;19.054;2023-05-10T08:31:04;97207.41;;;19.14;34.45
79331;BME280;68797;49.782;19.054;2023-05-10T08:33:31;97203.91;;;19.26;34.26
79331;BME280;68797;49.782;19.054;2023-05-10T08:35:59;97208.78;;;19.34;35.43
79331;BME280;68797;49.782;19.054;2023-05-10T08:38:26;97209.63;;;19.34;34.11
79331;BME280;68797;49.782;19.054;2023-05-10T08:40:54;97210.09;;;19.54;37.67
79331;BME280;68797;49.782;19.054;2023-05-10T08:43:28;97211.53;;;19.59;33.16
79331;BME280;68797;49.782;19.054;2023-05-10T08:46:01;97205.06;;;19.62;32.45
79331;BME280;68797;49.782;19.054;2023-05-10T08:48:34;97188.97;;;19.35;32.12
79331;BME280;68797;49.782;19.054;2023-05-10T08:51:02;97195.81;;;19.26;35.90
79331;BME280;68797;49.782;19.054;2023-05-10T08:53:33;97198.31;;;18.90;33.39
79331;BME280;68797;49.782;19.054;2023-05-10T08:56:02;97198.81;;;19.09;33.86
79331;BME280;68797;49.782;19.054;2023-05-10T08:58:33;97193.13;;;19.26;39.09
79331;BME280;68797;49.782;19.054;2023-05-10T09:01:12;97217.25;;;19.67;35.01
79331;BME280;68797;49.782;19.054;2023-05-10T09:03:40;97210.69;;;19.71;31.61
79331;BME280;68797;49.782;19.054;2023-05-10T09:06:07;97198.13;;;19.45;31.88
79331;BME280;68797;49.782;19.054;2023-05-10T09:08:48;97198.75;;;19.63;32.29
79331;BME280;68797;49.782;19.054;2023-05-10T09:11:17;97206.38;;;19.56;34.03
79331;BME280;68797;49.782;19.054;2023-05-10T09:13:44;97211.19;;;19.51;32.18
79331;BME280;68797;49.782;19.054;2023-05-10T09:16:11;97202.31;;;19.36;31.96
79331;BME280;68797;49.782;19.054;2023-05-10T09:18:37;97206.56;;;19.53;35.76
79331;BME280;68797;49.782;19.054;2023-05-10T09:21:10;97199.16;;;19.82;33.53
79331;BME280;68797;49.782;19.054;2023-05-10T09:23:43;97194.88;;;19.80;31.87
79331;BME280;68797;49.782;19.054;2023-05-10T09:26:10;97190.28;;;19.55;30.04
79331;BME280;68797;49.782;19.054;2023-05-10T09:31:18;97198.53;;;19.26;30.44
79331;BME280;68797;49.782;19.054;2023-05-10T09:33:45;97193.59;;;19.33;31.39
79331;BME280;68797;49.782;19.054;2023-05-10T09:36:16;97193.47;;;19.22;32.26
79331;BME280;68797;49.782;19.054;2023-05-10T09:38:54;97198.63;;;18.71;30.67
79331;BME280;68797;49.782;19.054;2023-05-10T09:41:23;97200.00;;;18.64;31.82
79331;BME280;68797;49.782;19.054;2023-05-10T09:43:55;97190.88;;;18.66;34.08
79331;BME280;68797;49.782;19.054;2023-05-10T09:46:24;97180.13;;;18.93;36.16
79331;BME280;68797;49.782;19.054;2023-05-10T09:48:51;97199.69;;;19.22;32.50
79331;BME280;68797;49.782;19.054;2023-05-10T09:51:20;97185.94;;;19.27;32.93
79331;BME280;68797;49.782;19.054;2023-05-10T09:54:12;97191.31;;;19.79;33.28
79331;BME280;68797;49.782;19.054;2023-05-10T09:56:40;97179.66;;;20.04;32.08
79331;BME280;68797;49.782;19.054;2023-05-10T09:59:10;97190.34;;;19.67;29.56
79331;BME280;68797;49.782;19.054;2023-05-10T10:01:38;97179.03;;;19.62;32.93
79331;BME280;68797;49.782;19.054;2023-05-10T10:04:06;97186.03;;;19.78;31.70
79331;BME280;68797;49.782;19.054;2023-05-10T10:06:38;97179.44;;;19.94;30.29
79331;BME280;68797;49.782;19.054;2023-05-10T10:09:08;97177.53;;;19.96;30.15
79331;BME280;68797;49.782;19.054;2023-05-10T10:11:37;97185.69;;;19.95;33.35
79331;BME280;68797;49.782;19.054;2023-05-10T10:14:05;97177.97;;;19.78;32.38
79331;BME280;68797;49.782;19.054;2023-05-10T10:16:32;97178.94;;;19.77;30.98
79331;BME280;68797;49.782;19.054;2023-05-10T10:18:59;97168.38;;;19.73;31.67
79331;BME280;68797;49.782;19.054;2023-05-10T10:21:28;97175.25;;;19.90;32.13
79331;BME280;68797;49.782;19.054;2023-05-10T10:23:55;97164.66;;;19.49;31.61
79331;BME280;68797;49.782;19.054;2023-05-10T10:26:24;97160.41;;;19.07;31.13
79331;BME280;68797;49.782;19.054;2023-05-10T10:29:17;97162.72;;;18.72;29.88
79331;BME280;68797;49.782;19.054;2023-05-10T10:32:28;97166.56;;;18.95;33.19
79331;BME280;68797;49.782;19.054;2023-05-10T10:34:57;97167.22;;;18.85;30.86
79331;BME280;68797;49.782;19.054;2023-05-10T10:37:23;97166.16;;;18.88;33.04
79331;BME280;68797;49.782;19.054;2023-05-10T10:42:51;97162.78;;;19.11;31.67
79331;BME280;68797;49.782;19.054;2023-05-10T10:45:22;97167.41;;;19.22;31.09
79331;BME280;68797;49.782;19.054;2023-05-10T10:47:54;97163.50;;;19.40;33.20
79331;BME280;68797;49.782;19.054;2023-05-10T10:50:45;97165.84;;;19.32;31.03
79331;BME280;68797;49.782;19.054;2023-05-10T10:53:16;97164.28;;;19.28;30.30
79331;BME280;68797;49.782;19.054;2023-05-10T10:55:46;97157.72;;;19.07;29.90
79331;BME280;68797;49.782;19.054;2023-05-10T10:58:31;97160.00;;;18.86;32.17
79331;BME280;68797;49.782;19.054;2023-05-10T11:01:18;97150.88;;;18.89;30.73
79331;BME280;68797;49.782;19.054;2023-05-10T11:06:34;97150.63;;;18.79;30.38
79331;BME280;68797;49.782;19.054;2023-05-10T11:09:11;97149.44;;;18.83;30.17
79331;BME280;68797;49.782;19.054;2023-05-10T11:11:52;97150.19;;;18.58;30.79
79331;BME280;68797;49.782;19.054;2023-05-10T11:14:25;97154.16;;;18.79;31.19
79331;BME280;68797;49.782;19.054;2023-05-10T11:16:51;97143.66;;;18.89;30.63
79331;BME280;68797;49.782;19.054;2023-05-10T11:19:20;97156.31;;;19.14;32.33
79331;BME280;68797;49.782;19.054;2023-05-10T11:21:51;97154.75;;;19.37;32.76
79331;BME280;68797;49.782;19.054;2023-05-10T11:24:21;97150.59;;;19.58;33.27
79331;BME280;68797;49.782;19.054;2023-05-10T11:26:53;97160.41;;;19.85;30.76
79331;BME280;68797;49.782;19.054;2023-05-10T11:29:20;97151.75;;;20.05;31.57
79331;BME280;68797;49.782;19.054;2023-05-10T11:31:49;97156.72;;;20.11;29.66
79331;BME280;68797;49.782;19.054;2023-05-10T11:34:24;97154.53;;;20.16;29.68
79331;BME280;68797;49.782;19.054;2023-05-10T11:36:52;97151.34;;;19.98;28.79
79331;BME280;68797;49.782;19.054;2023-05-10T11:39:21;97156.19;;;19.81;30.05
79331;BME280;68797;49.782;19.054;2023-05-10T11:41:49;97151.56;;;19.57;29.68
79331;BME280;68797;49.782;19.054;2023-05-10T11:44:16;97150.91;;;19.54;29.56
79331;BME280;68797;49.782;19.054;2023-05-10T11:46:43;97156.91;;;19.44;29.44
79331;BME280;68797;49.782;19.054;2023-05-10T11:49:10;97142.75;;;19.68;30.80
79331;BME280;68797;49.782;19.054;2023-05-10T11:51:41;97150.50;;;19.85;30.82
79331;BME280;68797;49.782;19.054;2023-05-10T11:54:11;97157.03;;;19.43;29.36
79331;BME280;68797;49.782;19.054;2023-05-10T11:56:41;97147.22;;;19.55;30.84
79331;BME280;68797;49.782;19.054;2023-05-10T11:59:08;97148.56;;;19.75;32.90
79331;BME280;68797;49.782;19.054;2023-05-10T12:01:35;97161.16;;;19.99;33.19
79331;BME280;68797;49.782;19.054;2023-05-10T12:04:03;97148.41;;;20.14;32.64
79331;BME280;68797;49.782;19.054;2023-05-10T12:06:32;97148.81;;;20.34;32.31
79331;BME280;68797;49.782;19.054;2023-05-10T12:09:09;97139.84;;;20.33;31.56
79331;BME280;68797;49.782;19.054;2023-05-10T12:11:39;97136.00;;;20.24;29.24
79331;BME280;68797;49.782;19.054;2023-05-10T12:14:08;97145.81;;;20.13;29.15
79331;BME280;68797;49.782;19.054;2023-05-10T12:16:36;97138.84;;;20.10;32.20
79331;BME280;68797;49.782;19.054;2023-05-10T12:19:04;97154.34;;;19.94;29.43
79331;BME280;68797;49.782;19.054;2023-05-10T12:21:31;97142.31;;;19.74;30.38
79331;BME280;68797;49.782;19.054;2023-05-10T12:24:03;97143.56;;;19.94;28.58
79331;BME280;68797;49.782;19.054;2023-05-10T12:26:31;97141.19;;;19.38;30.56
79331;BME280;68797;49.782;19.054;2023-05-10T12:29:17;97143.28;;;19.60;31.87
79331;BME280;68797;49.782;19.054;2023-05-10T12:31:58;97149.06;;;20.05;33.28
79331;BME280;68797;49.782;19.054;2023-05-10T12:34:34;97130.94;;;20.20;30.93
79331;BME280;68797;49.782;19.054;2023-05-10T12:37:04;97140.22;;;20.16;31.23
79331;BME280;68797;49.782;19.054;2023-05-10T12:39:44;97135.84;;;20.39;32.29
79331;BME280;68797;49.782;19.054;2023-05-10T12:42:14;97128.44;;;20.42;29.76
79331;BME280;68797;49.782;19.054;2023-05-10T12:44:41;97136.78;;;20.14;28.66
79331;BME280;68797;49.782;19.054;2023-05-10T12:47:08;97123.06;;;20.29;31.96
79331;BME280;68797;49.782;19.054;2023-05-10T12:49:35;97126.03;;;20.38;29.13
79331;BME280;68797;49.782;19.054;2023-05-10T12:52:28;97127.00;;;20.49;30.95
79331;BME280;68797;49.782;19.054;2023-05-10T12:54:56;97121.31;;;20.28;29.76
79331;BME280;68797;49.782;19.054;2023-05-10T12:57:23;97125.22;;;20.24;29.09
79331;BME280;68797;49.782;19.054;2023-05-10T12:59:51;97127.78;;;19.77;29.96
79331;BME280;68797;49.782;19.054;2023-05-10T13:02:19;97128.00;;;19.86;31.26
79331;BME280;68797;49.782;19.054;2023-05-10T13:04:47;97121.63;;;19.87;28.93
79331;BME280;68797;49.782;19.054;2023-05-10T13:07:15;97128.28;;;20.07;31.29
79331;BME280;68797;49.782;19.054;2023-05-10T13:09:44;97125.38;;;20.10;31.14
79331;BME280;68797;49.782;19.054;2023-05-10T13:12:10;97115.53;;;20.22;31.27
79331;BME280;68797;49.782;19.054;2023-05-10T13:14:38;97117.00;;;20.26;30.44
79331;BME280;68797;49.782;19.054;2023-05-10T13:17:15;97103.63;;;20.37;30.51
79331;BME280;68797;49.782;19.054;2023-05-10T13:19:46;97109.72;;;20.15;29.79
79331;BME280;68797;49.782;19.054;2023-05-10T13:22:13;97120.06;;;20.21;29.22
79331;BME280;68797;49.782;19.054;2023-05-10T13:24:43;97111.22;;;20.19;29.12
79331;BME280;68797;49.782;19.054;2023-05-10T13:27:10;97116.75;;;20.05;30.64